sensor_id;sensor_type;location;lat;lon;timestamp;pressure;altitude;pressure_sealevel;temperature;humidity
80116;BME280;69423;47.608;19.366;2023-08-12T00:00:16;99610.94;;;13.91;83.04
80116;BME280;69423;47.608;19.366;2023-08-12T00:00:47;99624.75;;;13.88;84.39
80116;BME280;69423;47.608;19.366;2023-08-12T00:01:18;99614.66;;;13.90;84.39
80116;BME280;69423;47.608;19.366;2023-08-12T00:01:52;99617.53;;;13.88;84.85
80116;BME280;69423;47.608;19.366;2023-08-12T00:02:23;99613.63;;;13.91;85.39
80116;BME280;69423;47.608;19.366;2023-08-12T00:02:54;99619.81;;;13.91;84.82
80116;BME280;69423;47.608;19.366;2023-08-12T00:03:25;99618.00;;;13.92;85.00
80116;BME280;69423;47.608;19.366;2023-08-12T00:03:56;99615.03;;;13.87;84.84
80116;BME280;69423;47.608;19.366;2023-08-12T00:04:27;99622.88;;;13.88;85.26
80116;BME280;69423;47.608;19.366;2023-08-12T00:04:58;99615.94;;;13.94;84.51
80116;BME280;69423;47.608;19.366;2023-08-12T00:05:29;99615.31;;;13.92;84.07
80116;BME280;69423;47.608;19.366;2023-08-12T00:06:01;99625.63;;;13.95;84.98
80116;BME280;69423;47.608;19.366;2023-08-12T00:06:32;99616.13;;;13.92;84.54
80116;BME280;69423;47.608;19.366;2023-08-12T00:07:03;99620.66;;;13.92;84.63
80116;BME280;69423;47.608;19.366;2023-08-12T00:07:34;99618.53;;;13.87;84.05
80116;BME280;69423;47.608;19.366;2023-08-12T00:08:06;99617.72;;;13.87;84.79
80116;BME280;69423;47.608;19.366;2023-08-12T00:08:37;99614.84;;;13.88;84.65
80116;BME280;69423;47.608;19.366;2023-08-12T00:09:08;99618.91;;;13.84;84.82
80116;BME280;69423;47.608;19.366;2023-08-12T00:09:40;99619.75;;;13.85;84.75
80116;BME280;69423;47.608;19.366;2023-08-12T00:10:12;99622.16;;;13.80;85.13
80116;BME280;69423;47.608;19.366;2023-08-12T00:10:43;99623.00;;;13.80;84.53
80116;BME280;69423;47.608;19.366;2023-08-12T00:11:14;99624.63;;;13.81;84.80
80116;BME280;69423;47.608;19.366;2023-08-12T00:11:45;99622.44;;;13.70;85.41
80116;BME280;69423;47.608;19.366;2023-08-12T00:12:17;99621.44;;;13.71;84.78
80116;BME280;69423;47.608;19.366;2023-08-12T00:12:48;99619.78;;;13.70;85.23
80116;BME280;69423;47.608;19.366;2023-08-12T00:13:19;99621.81;;;13.68;85.27
80116;BME280;69423;47.608;19.366;2023-08-12T00:13:51;99624.88;;;13.65;84.30
80116;BME280;69423;47.608;19.366;2023-08-12T00:14:22;99628.84;;;13.69;85.44
80116;BME280;69423;47.608;19.366;2023-08-12T00:14:53;99631.31;;;13.70;84.95
80116;BME280;69423;47.608;19.366;2023-08-12T00:15:24;99632.34;;;13.69;85.05
80116;BME280;69423;47.608;19.366;2023-08-12T00:15:55;99622.19;;;13.65;84.47
80116;BME280;69423;47.608;19.366;2023-08-12T00:16:27;99618.47;;;13.66;84.62
80116;BME280;69423;47.608;19.366;2023-08-12T00:16:59;99624.47;;;13.68;85.29
80116;BME280;69423;47.608;19.366;2023-08-12T00:17:30;99624.31;;;13.69;84.81
80116;BME280;69423;47.608;19.366;2023-08-12T00:18:01;99620.50;;;13.64;84.94
80116;BME280;69423;47.608;19.366;2023-08-12T00:18:35;99618.66;;;13.64;85.28
80116;BME280;69423;47.608;19.366;2023-08-12T00:19:07;99621.91;;;13.60;84.98
80116;BME280;69423;47.608;19.366;2023-08-12T00:19:39;99623.94;;;13.57;84.76
80116;BME280;69423;47.608;19.366;2023-08-12T00:20:10;99617.94;;;13.55;85.22
80116;BME280;69423;47.608;19.366;2023-08-12T00:20:42;99624.59;;;13.60;84.99
80116;BME280;69423;47.608;19.366;2023-08-12T00:21:14;99623.75;;;13.59;84.94
80116;BME280;69423;47.608;19.366;2023-08-12T00:21:45;99623.59;;;13.61;84.10
80116;BME280;69423;47.608;19.366;2023-08-12T00:22:16;99625.63;;;13.59;84.29
80116;BME280;69423;47.608;19.366;2023-08-12T00:22:47;99614.50;;;13.62;84.57
80116;BME280;69423;47.608;19.366;2023-08-12T00:23:18;99612.47;;;13.64;84.60
80116;BME280;69423;47.608;19.366;2023-08-12T00:23:49;99614.34;;;13.63;84.67
80116;BME280;69423;47.608;19.366;2023-08-12T00:24:20;99610.63;;;13.64;85.57
80116;BME280;69423;47.608;19.366;2023-08-12T00:24:52;99611.81;;;13.62;85.13
80116;BME280;69423;47.608;19.366;2023-08-12T00:25:23;99612.13;;;13.67;85.12
80116;BME280;69423;47.608;19.366;2023-08-12T00:25:58;99607.59;;;13.67;85.08
80116;BME280;69423;47.608;19.366;2023-08-12T00:26:29;99610.44;;;13.66;84.40
80116;BME280;69423;47.608;19.366;2023-08-12T00:27:00;99614.16;;;13.65;84.83
80116;BME280;69423;47.608;19.366;2023-08-12T00:27:31;99600.75;;;13.65;85.22
80116;BME280;69423;47.608;19.366;2023-08-12T00:28:03;99610.44;;;13.66;85.04
80116;BME280;69423;47.608;19.366;2023-08-12T00:28:34;99609.22;;;13.68;85.22
80116;BME280;69423;47.608;19.366;2023-08-12T00:29:05;99609.88;;;13.70;85.05
80116;BME280;69423;47.608;19.366;2023-08-12T00:29:36;99606.00;;;13.73;85.53
80116;BME280;69423;47.608;19.366;2023-08-12T00:30:07;99605.81;;;13.74;85.33
80116;BME280;69423;47.608;19.366;2023-08-12T00:30:39;99605.44;;;13.77;85.68
80116;BME280;69423;47.608;19.366;2023-08-12T00:31:10;99604.63;;;13.77;85.20
80116;BME280;69423;47.608;19.366;2023-08-12T00:31:41;99604.34;;;13.72;84.99
80116;BME280;69423;47.608;19.366;2023-08-12T00:32:12;99606.19;;;13.71;85.60
80116;BME280;69423;47.608;19.366;2023-08-12T00:32:43;99602.69;;;13.71;85.20
80116;BME280;69423;47.608;19.366;2023-08-12T00:33:14;99602.47;;;13.72;85.63
80116;BME280;69423;47.608;19.366;2023-08-12T00:33:45;99607.59;;;13.67;85.16
80116;BME280;69423;47.608;19.366;2023-08-12T00:34:17;99607.75;;;13.66;85.42
80116;BME280;69423;47.608;19.366;2023-08-12T00:34:48;99607.41;;;13.69;85.23
80116;BME280;69423;47.608;19.366;2023-08-12T00:35:19;99604.25;;;13.65;85.11
80116;BME280;69423;47.608;19.366;2023-08-12T00:35:50;99607.50;;;13.61;84.59
80116;BME280;69423;47.608;19.366;2023-08-12T00:36:21;99604.72;;;13.54;84.62
80116;BME280;69423;47.608;19.366;2023-08-12T00:36:52;99600.56;;;13.51;84.66
80116;BME280;69423;47.608;19.366;2023-08-12T00:37:23;99603.41;;;13.50;84.88
80116;BME280;69423;47.608;19.366;2023-08-12T00:37:54;99615.00;;;13.50;85.00
80116;BME280;69423;47.608;19.366;2023-08-12T00:38:25;99604.00;;;13.45;84.77
80116;BME280;69423;47.608;19.366;2023-08-12T00:38:56;99615.09;;;13.42;84.23
80116;BME280;69423;47.608;19.366;2023-08-12T00:39:27;99609.25;;;13.39;83.81
80116;BME280;69423;47.608;19.366;2023-08-12T00:39:58;99605.13;;;13.36;84.96
80116;BME280;69423;47.608;19.366;2023-08-12T00:40:29;99610.94;;;13.40;83.92
80116;BME280;69423;47.608;19.366;2023-08-12T00:41:01;99600.41;;;13.38;84.50
80116;BME280;69423;47.608;19.366;2023-08-12T00:41:32;99607.78;;;13.36;83.98
80116;BME280;69423;47.608;19.366;2023-08-12T00:42:03;99613.88;;;13.30;83.81
80116;BME280;69423;47.608;19.366;2023-08-12T00:42:34;99614.59;;;13.24;84.62
80116;BME280;69423;47.608;19.366;2023-08-12T00:43:05;99614.41;;;13.25;84.45
80116;BME280;69423;47.608;19.366;2023-08-12T00:43:36;99618.47;;;13.21;84.45
80116;BME280;69423;47.608;19.366;2023-08-12T00:44:07;99612.81;;;13.16;84.90
80116;BME280;69423;47.608;19.366;2023-08-12T00:44:38;99610.31;;;13.14;85.02
80116;BME280;69423;47.608;19.366;2023-08-12T00:45:10;99613.00;;;13.14;85.54
80116;BME280;69423;47.608;19.366;2023-08-12T00:45:44;99610.97;;;13.16;85.85
80116;BME280;69423;47.608;19.366;2023-08-12T00:46:15;99613.00;;;13.14;85.43
80116;BME280;69423;47.608;19.366;2023-08-12T00:46:47;99603.50;;;13.12;85.65
80116;BME280;69423;47.608;19.366;2023-08-12T00:47:20;99602.00;;;13.09;85.21
80116;BME280;69423;47.608;19.366;2023-08-12T00:47:51;99605.16;;;13.13;85.98
80116;BME280;69423;47.608;19.366;2023-08-12T00:48:23;99610.03;;;13.09;85.48
80116;BME280;69423;47.608;19.366;2023-08-12T00:48:54;99607.38;;;13.09;85.60
80116;BME280;69423;47.608;19.366;2023-08-12T00:49:27;99606.00;;;13.13;85.63
80116;BME280;69423;47.608;19.366;2023-08-12T00:49:58;99609.50;;;13.14;86.03
80116;BME280;69423;47.608;19.366;2023-08-12T00:50:30;99609.50;;;13.14;84.88
80116;BME280;69423;47.608;19.366;2023-08-12T00:51:01;99608.03;;;13.11;85.29
80116;BME280;69423;47.608;19.366;2023-08-12T00:51:35;99616.69;;;13.13;85.99
80116;BME280;69423;47.608;19.366;2023-08-12T00:52:06;99613.00;;;13.14;84.82
80116;BME280;69423;47.608;19.366;2023-08-12T00:52:37;99612.91;;;13.08;85.30
80116;BME280;69423;47.608;19.366;2023-08-12T00:53:11;99612.63;;;13.03;85.83
80116;BME280;69423;47.608;19.366;2023-08-12T00:53:45;99602.56;;;13.05;85.03
80116;BME280;69423;47.608;19.366;2023-08-12T00:54:17;99605.91;;;13.07;85.69
80116;BME280;69423;47.608;19.366;2023-08-12T00:54:49;99607.09;;;13.04;85.93
80116;BME280;69423;47.608;19.366;2023-08-12T00:55:21;99602.56;;;13.05;86.25
80116;BME280;69423;47.608;19.366;2023-08-12T00:55:52;99607.75;;;13.06;85.37
80116;BME280;69423;47.608;19.366;2023-08-12T00:56:23;99605.41;;;13.03;85.29
80116;BME280;69423;47.608;19.366;2023-08-12T00:56:55;99603.78;;;13.02;85.15
80116;BME280;69423;47.608;19.366;2023-08-12T00:57:26;99607.09;;;13.04;84.86
80116;BME280;69423;47.608;19.366;2023-08-12T00:57:57;99608.75;;;13.05;85.15
80116;BME280;69423;47.608;19.366;2023-08-12T00:58:28;99601.38;;;13.07;85.56
80116;BME280;69423;47.608;19.366;2023-08-12T00:59:01;99601.75;;;13.04;85.51
80116;BME280;69423;47.608;19.366;2023-08-12T00:59:35;99608.41;;;13.08;85.19
80116;BME280;69423;47.608;19.366;2023-08-12T01:00:08;99605.06;;;13.06;86.11
80116;BME280;69423;47.608;19.366;2023-08-12T01:00:40;99605.06;;;13.06;86.29
80116;BME280;69423;47.608;19.366;2023-08-12T01:01:11;99603.41;;;13.05;86.01
80116;BME280;69423;47.608;19.366;2023-08-12T01:01:43;99608.47;;;13.00;86.14
80116;BME280;69423;47.608;19.366;2023-08-12T01:02:15;99598.78;;;12.99;86.62
80116;BME280;69423;47.608;19.366;2023-08-12T01:02:46;99597.78;;;13.00;86.90
80116;BME280;69423;47.608;19.366;2023-08-12T01:03:19;99605.41;;;13.03;86.30
80116;BME280;69423;47.608;19.366;2023-08-12T01:03:51;99604.22;;;13.06;85.89
80116;BME280;69423;47.608;19.366;2023-08-12T01:04:22;99599.72;;;13.06;86.73
80116;BME280;69423;47.608;19.366;2023-08-12T01:04:53;99597.38;;;13.03;86.54
80116;BME280;69423;47.608;19.366;2023-08-12T01:05:24;99597.78;;;13.00;86.05
80116;BME280;69423;47.608;19.366;2023-08-12T01:05:56;99608.75;;;13.05;87.17
80116;BME280;69423;47.608;19.366;2023-08-12T01:06:27;99597.22;;;13.05;86.77
80116;BME280;69423;47.608;19.366;2023-08-12T01:06:58;99599.25;;;13.03;86.29
80116;BME280;69423;47.608;19.366;2023-08-12T01:07:29;99603.41;;;13.05;86.14
80116;BME280;69423;47.608;19.366;2023-08-12T01:08:00;99597.94;;;12.99;86.20
80116;BME280;69423;47.608;19.366;2023-08-12T01:08:32;99595.44;;;12.97;86.17
80116;BME280;69423;47.608;19.366;2023-08-12T01:09:04;99601.75;;;13.04;86.93
80116;BME280;69423;47.608;19.366;2023-08-12T01:09:36;99590.38;;;13.02;86.92
80116;BME280;69423;47.608;19.366;2023-08-12T01:10:07;99598.78;;;12.99;86.95
80116;BME280;69423;47.608;19.366;2023-08-12T01:10:46;99593.25;;;13.01;86.37
80116;BME280;69423;47.608;19.366;2023-08-12T01:13:38;99591.78;;;12.98;87.25
80116;BME280;69423;47.608;19.366;2023-08-12T01:15:38;99595.38;;;13.05;86.76
80116;BME280;69423;47.608;19.366;2023-08-12T01:16:13;99592.03;;;13.03;86.88
80116;BME280;69423;47.608;19.366;2023-08-12T01:16:50;99595.91;;;13.01;86.43
80116;BME280;69423;47.608;19.366;2023-08-12T01:17:22;99593.59;;;12.98;86.65
80116;BME280;69423;47.608;19.366;2023-08-12T01:17:54;99590.47;;;12.94;86.74
80116;BME280;69423;47.608;19.366;2023-08-12T01:18:26;99598.78;;;12.99;86.90
80116;BME280;69423;47.608;19.366;2023-08-12T01:18:58;99598.88;;;13.06;86.98
80116;BME280;69423;47.608;19.366;2023-08-12T01:19:38;99596.00;;;13.07;86.66
80116;BME280;69423;47.608;19.366;2023-08-12T01:20:11;99596.00;;;13.07;86.68
80116;BME280;69423;47.608;19.366;2023-08-12T01:20:47;99590.66;;;13.07;87.66
80116;BME280;69423;47.608;19.366;2023-08-12T01:21:21;99594.53;;;13.05;88.16
80116;BME280;69423;47.608;19.366;2023-08-12T01:21:53;99591.47;;;13.08;88.07
80116;BME280;69423;47.608;19.366;2023-08-12T01:22:27;99593.63;;;13.12;87.34
80116;BME280;69423;47.608;19.366;2023-08-12T01:23:09;99596.09;;;13.14;87.04
80116;BME280;69423;47.608;19.366;2023-08-12T01:23:42;99596.09;;;13.14;86.60
80116;BME280;69423;47.608;19.366;2023-08-12T01:24:13;99588.06;;;13.14;87.01
80116;BME280;69423;47.608;19.366;2023-08-12T01:24:44;99601.94;;;13.18;86.65
80116;BME280;69423;47.608;19.366;2023-08-12T01:25:15;99593.25;;;13.15;86.11
80116;BME280;69423;47.608;19.366;2023-08-12T01:25:46;99594.06;;;13.16;86.78
80116;BME280;69423;47.608;19.366;2023-08-12T01:26:17;99599.50;;;13.23;86.52
80116;BME280;69423;47.608;19.366;2023-08-12T01:26:48;99592.97;;;13.25;86.59
80116;BME280;69423;47.608;19.366;2023-08-12T01:27:19;99599.16;;;13.26;86.14
80116;BME280;69423;47.608;19.366;2023-08-12T01:27:51;99592.97;;;13.25;86.61
80116;BME280;69423;47.608;19.366;2023-08-12T01:28:22;99591.13;;;13.26;86.38
80116;BME280;69423;47.608;19.366;2023-08-12T01:28:53;99593.81;;;13.26;85.65
80116;BME280;69423;47.608;19.366;2023-08-12T01:29:24;99587.16;;;13.22;86.80
80116;BME280;69423;47.608;19.366;2023-08-12T01:29:55;99605.34;;;13.26;86.12
80116;BME280;69423;47.608;19.366;2023-08-12T01:30:27;99610.38;;;13.29;85.62
80116;BME280;69423;47.608;19.366;2023-08-12T01:31:08;99598.81;;;13.29;85.20
80116;BME280;69423;47.608;19.366;2023-08-12T01:31:51;99605.84;;;13.30;85.44
80116;BME280;69423;47.608;19.366;2023-08-12T01:34:34;99603.69;;;13.25;85.88
80116;BME280;69423;47.608;19.366;2023-08-12T01:35:39;99610.22;;;13.23;85.86
80116;BME280;69423;47.608;19.366;2023-08-12T01:36:17;99603.13;;;13.15;85.88
80116;BME280;69423;47.608;19.366;2023-08-12T01:36:55;99613.38;;;13.11;86.52
80116;BME280;69423;47.608;19.366;2023-08-12T01:37:31;99608.50;;;13.15;86.07
80116;BME280;69423;47.608;19.366;2023-08-12T01:38:05;99605.81;;;13.15;86.11
80116;BME280;69423;47.608;19.366;2023-08-12T01:38:38;99604.34;;;13.12;86.59
80116;BME280;69423;47.608;19.366;2023-08-12T01:39:11;99607.63;;;13.14;86.22
80116;BME280;69423;47.608;19.366;2023-08-12T01:39:43;99606.63;;;13.15;86.12
80116;BME280;69423;47.608;19.366;2023-08-12T01:40:17;99603.97;;;13.15;85.99
80116;BME280;69423;47.608;19.366;2023-08-12T01:40:50;99610.31;;;13.14;84.92
80116;BME280;69423;47.608;19.366;2023-08-12T01:41:23;99600.63;;;13.13;85.56
80116;BME280;69423;47.608;19.366;2023-08-12T01:41:55;99600.63;;;13.13;85.26
80116;BME280;69423;47.608;19.366;2023-08-12T01:42:27;99602.50;;;13.13;85.87
80116;BME280;69423;47.608;19.366;2023-08-12T01:43:00;99598.34;;;13.10;86.52
80116;BME280;69423;47.608;19.366;2023-08-12T01:43:32;99597.56;;;13.16;86.61
80116;BME280;69423;47.608;19.366;2023-08-12T01:44:04;99592.88;;;13.19;85.86
80116;BME280;69423;47.608;19.366;2023-08-12T01:44:35;99599.50;;;13.23;86.15
80116;BME280;69423;47.608;19.366;2023-08-12T01:45:07;99604.88;;;13.23;86.63
80116;BME280;69423;47.608;19.366;2023-08-12T01:45:38;99604.69;;;13.24;86.51
80116;BME280;69423;47.608;19.366;2023-08-12T01:46:10;99598.88;;;13.21;86.57
80116;BME280;69423;47.608;19.366;2023-08-12T01:46:43;99600.53;;;13.22;86.88
80116;BME280;69423;47.608;19.366;2023-08-12T01:47:14;99603.22;;;13.22;86.56
80116;BME280;69423;47.608;19.366;2023-08-12T01:47:45;99597.88;;;13.22;86.65
80116;BME280;69423;47.608;19.366;2023-08-12T01:48:16;99595.00;;;13.23;85.76
80116;BME280;69423;47.608;19.366;2023-08-12T01:48:50;99595.19;;;13.22;85.65
80116;BME280;69423;47.608;19.366;2023-08-12T01:49:21;99600.38;;;13.23;86.87
80116;BME280;69423;47.608;19.366;2023-08-12T01:49:54;99596.84;;;13.23;86.20
80116;BME280;69423;47.608;19.366;2023-08-12T01:50:26;99602.41;;;13.21;86.29
80116;BME280;69423;47.608;19.366;2023-08-12T01:50:57;99597.88;;;13.22;85.58
80116;BME280;69423;47.608;19.366;2023-08-12T01:51:29;99601.53;;;13.21;85.99
80116;BME280;69423;47.608;19.366;2023-08-12T01:52:00;99595.53;;;13.19;85.99
80116;BME280;69423;47.608;19.366;2023-08-12T01:52:31;99595.53;;;13.19;86.07
80116;BME280;69423;47.608;19.366;2023-08-12T01:53:03;99597.41;;;13.18;85.95
80116;BME280;69423;47.608;19.366;2023-08-12T01:53:34;99583.84;;;13.20;85.73
80116;BME280;69423;47.608;19.366;2023-08-12T01:54:05;99598.44;;;13.17;85.49
80116;BME280;69423;47.608;19.366;2023-08-12T01:54:36;99596.19;;;13.21;85.63
80116;BME280;69423;47.608;19.366;2023-08-12T01:55:07;99596.19;;;13.21;86.08
80116;BME280;69423;47.608;19.366;2023-08-12T01:55:40;99597.88;;;13.22;85.56
80116;BME280;69423;47.608;19.366;2023-08-12T01:56:11;99594.16;;;13.23;85.98
80116;BME280;69423;47.608;19.366;2023-08-12T01:56:42;99599.50;;;13.23;85.89
80116;BME280;69423;47.608;19.366;2023-08-12T01:57:13;99587.97;;;13.22;85.47
80116;BME280;69423;47.608;19.366;2023-08-12T01:57:44;99598.03;;;13.20;85.51
80116;BME280;69423;47.608;19.366;2023-08-12T01:58:15;99590.84;;;13.21;85.70
80116;BME280;69423;47.608;19.366;2023-08-12T01:58:46;99595.84;;;13.24;85.00
80116;BME280;69423;47.608;19.366;2023-08-12T01:59:17;99593.34;;;13.22;85.20
80116;BME280;69423;47.608;19.366;2023-08-12T01:59:50;99599.50;;;13.23;85.56
80116;BME280;69423;47.608;19.366;2023-08-12T02:00:21;99595.38;;;13.20;85.60
80116;BME280;69423;47.608;19.366;2023-08-12T02:00:53;99595.38;;;13.20;85.69
80116;BME280;69423;47.608;19.366;2023-08-12T02:01:24;99581.41;;;13.25;86.17
80116;BME280;69423;47.608;19.366;2023-08-12T02:01:55;99586.41;;;13.28;85.96
80116;BME280;69423;47.608;19.366;2023-08-12T02:02:26;99590.97;;;13.27;85.84
80116;BME280;69423;47.608;19.366;2023-08-12T02:02:57;99591.94;;;13.26;85.75
80116;BME280;69423;47.608;19.366;2023-08-12T02:03:28;99596.19;;;13.21;85.69
80116;BME280;69423;47.608;19.366;2023-08-12T02:03:59;99599.91;;;13.20;85.21
80116;BME280;69423;47.608;19.366;2023-08-12T02:04:30;99591.69;;;13.21;85.85
80116;BME280;69423;47.608;19.366;2023-08-12T02:05:02;99591.69;;;13.21;85.39
80116;BME280;69423;47.608;19.366;2023-08-12T02:05:33;99593.50;;;13.21;85.52
80116;BME280;69423;47.608;19.366;2023-08-12T02:06:04;99595.38;;;13.20;85.92
80116;BME280;69423;47.608;19.366;2023-08-12T02:06:35;99602.19;;;13.23;86.16
80116;BME280;69423;47.608;19.366;2023-08-12T02:07:06;99587.97;;;13.22;85.35
80116;BME280;69423;47.608;19.366;2023-08-12T02:07:37;99594.53;;;13.20;86.35
80116;BME280;69423;47.608;19.366;2023-08-12T02:08:08;99601.53;;;13.21;85.94
80116;BME280;69423;47.608;19.366;2023-08-12T02:08:39;99598.88;;;13.21;85.28
80116;BME280;69423;47.608;19.366;2023-08-12T02:09:11;99595.28;;;13.13;85.25
80116;BME280;69423;47.608;19.366;2023-08-12T02:09:42;99604.34;;;13.12;85.50
80116;BME280;69423;47.608;19.366;2023-08-12T02:10:13;99596.09;;;13.14;85.84
80116;BME280;69423;47.608;19.366;2023-08-12T02:10:45;99597.31;;;13.11;85.80
80116;BME280;69423;47.608;19.366;2023-08-12T02:11:16;99587.81;;;13.09;86.36
80116;BME280;69423;47.608;19.366;2023-08-12T02:11:47;99602.66;;;13.11;86.24
80116;BME280;69423;47.608;19.366;2023-08-12T02:12:18;99593.97;;;13.09;86.37
80116;BME280;69423;47.608;19.366;2023-08-12T02:12:49;99594.38;;;13.06;86.26
80116;BME280;69423;47.608;19.366;2023-08-12T02:13:20;99606.91;;;13.06;85.81
80116;BME280;69423;47.608;19.366;2023-08-12T02:13:51;99594.88;;;13.02;85.75
80116;BME280;69423;47.608;19.366;2023-08-12T02:14:23;99599.06;;;13.04;86.03
80116;BME280;69423;47.608;19.366;2023-08-12T02:14:54;99591.38;;;13.01;86.30
80116;BME280;69423;47.608;19.366;2023-08-12T02:15:25;99594.88;;;13.02;86.00
80116;BME280;69423;47.608;19.366;2023-08-12T02:15:56;99598.78;;;12.99;86.29
80116;BME280;69423;47.608;19.366;2023-08-12T02:16:27;99595.81;;;12.94;86.34
80116;BME280;69423;47.608;19.366;2023-08-12T02:16:58;99599.03;;;12.89;86.77
80116;BME280;69423;47.608;19.366;2023-08-12T02:17:29;99599.88;;;12.90;86.90
80116;BME280;69423;47.608;19.366;2023-08-12T02:18:00;99591.19;;;12.88;86.30
80116;BME280;69423;47.608;19.366;2023-08-12T02:18:31;99589.81;;;12.92;87.09
80116;BME280;69423;47.608;19.366;2023-08-12T02:19:02;99599.50;;;12.93;86.24
80116;BME280;69423;47.608;19.366;2023-08-12T02:19:34;99594.16;;;12.93;86.54
80116;BME280;69423;47.608;19.366;2023-08-12T02:20:05;99601.19;;;12.94;86.24
80116;BME280;69423;47.608;19.366;2023-08-12T02:20:37;99596.19;;;12.91;87.29
80116;BME280;69423;47.608;19.366;2023-08-12T02:21:08;99591.28;;;12.94;87.22
80116;BME280;69423;47.608;19.366;2023-08-12T02:21:39;99603.47;;;12.97;87.25
80116;BME280;69423;47.608;19.366;2023-08-12T02:22:10;99586.94;;;12.93;87.01
80116;BME280;69423;47.608;19.366;2023-08-12T02:22:41;99593.88;;;12.88;86.41
80116;BME280;69423;47.608;19.366;2023-08-12T02:23:12;99596.91;;;12.85;86.12
80116;BME280;69423;47.608;19.366;2023-08-12T02:23:43;99600.41;;;12.85;86.23
80116;BME280;69423;47.608;19.366;2023-08-12T02:24:15;99601.03;;;12.87;85.73
80116;BME280;69423;47.608;19.366;2023-08-12T02:24:46;99595.69;;;12.87;86.48
80116;BME280;69423;47.608;19.366;2023-08-12T02:25:17;99601.91;;;12.88;87.02
80116;BME280;69423;47.608;19.366;2023-08-12T02:25:48;99597.56;;;12.87;86.50
80116;BME280;69423;47.608;19.366;2023-08-12T02:26:19;99604.09;;;12.84;87.10
80116;BME280;69423;47.608;19.366;2023-08-12T02:26:50;99612.31;;;12.83;86.34
80116;BME280;69423;47.608;19.366;2023-08-12T02:27:21;99605.09;;;12.83;87.05
80116;BME280;69423;47.608;19.366;2023-08-12T02:27:52;99601.31;;;12.78;85.92
80116;BME280;69423;47.608;19.366;2023-08-12T02:28:23;99599.84;;;12.75;87.00
80116;BME280;69423;47.608;19.366;2023-08-12T02:28:54;99594.94;;;12.79;86.68
80116;BME280;69423;47.608;19.366;2023-08-12T02:29:25;99595.59;;;12.81;87.25
80116;BME280;69423;47.608;19.366;2023-08-12T02:29:56;99601.44;;;12.84;87.67
80116;BME280;69423;47.608;19.366;2023-08-12T02:30:29;99595.25;;;12.84;86.97
80116;BME280;69423;47.608;19.366;2023-08-12T02:31:01;99596.72;;;12.86;87.34
80116;BME280;69423;47.608;19.366;2023-08-12T02:31:32;99596.06;;;12.84;86.79
80116;BME280;69423;47.608;19.366;2023-08-12T02:32:03;99600.94;;;12.81;86.69
80116;BME280;69423;47.608;19.366;2023-08-12T02:32:35;99595.81;;;12.79;87.24
80116;BME280;69423;47.608;19.366;2023-08-12T02:33:06;99598.47;;;12.79;87.10
80116;BME280;69423;47.608;19.366;2023-08-12T02:33:37;99595.97;;;12.78;86.44
80116;BME280;69423;47.608;19.366;2023-08-12T02:34:08;99595.97;;;12.78;86.53
80116;BME280;69423;47.608;19.366;2023-08-12T02:34:39;99595.97;;;12.78;86.81
80116;BME280;69423;47.608;19.366;2023-08-12T02:35:10;99592.66;;;12.75;86.18
80116;BME280;69423;47.608;19.366;2023-08-12T02:35:42;99590.78;;;12.76;85.62
80116;BME280;69423;47.608;19.366;2023-08-12T02:36:13;99595.97;;;12.78;86.53
80116;BME280;69423;47.608;19.366;2023-08-12T02:36:44;99590.97;;;12.74;87.12
80116;BME280;69423;47.608;19.366;2023-08-12T02:37:15;99593.66;;;12.74;87.23
80116;BME280;69423;47.608;19.366;2023-08-12T02:37:48;99589.50;;;12.72;87.12
80116;BME280;69423;47.608;19.366;2023-08-12T02:38:19;99586.81;;;12.72;87.41
80116;BME280;69423;47.608;19.366;2023-08-12T02:38:50;99593.84;;;12.73;87.91
80116;BME280;69423;47.608;19.366;2023-08-12T02:39:21;99593.84;;;12.73;87.29
80116;BME280;69423;47.608;19.366;2023-08-12T02:39:52;99587.47;;;12.74;87.14
80116;BME280;69423;47.608;19.366;2023-08-12T02:40:23;99586.66;;;12.73;87.25
80116;BME280;69423;47.608;19.366;2023-08-12T02:40:54;99581.47;;;12.72;87.85
80116;BME280;69423;47.608;19.366;2023-08-12T02:41:26;99601.03;;;12.72;88.06
80116;BME280;69423;47.608;19.366;2023-08-12T02:41:57;99594.03;;;12.71;88.01
80116;BME280;69423;47.608;19.366;2023-08-12T02:42:28;99593.00;;;12.72;87.34
80116;BME280;69423;47.608;19.366;2023-08-12T02:42:59;99588.66;;;12.71;87.96
80116;BME280;69423;47.608;19.366;2023-08-12T02:43:30;99594.84;;;12.72;87.81
80116;BME280;69423;47.608;19.366;2023-08-12T02:44:01;99591.69;;;12.68;87.32
80116;BME280;69423;47.608;19.366;2023-08-12T02:44:32;99593.53;;;12.68;87.77
80116;BME280;69423;47.608;19.366;2023-08-12T02:45:03;99588.38;;;12.66;88.17
80116;BME280;69423;47.608;19.366;2023-08-12T02:45:34;99591.25;;;12.65;88.30
80116;BME280;69423;47.608;19.366;2023-08-12T02:46:05;99587.53;;;12.66;88.23
80116;BME280;69423;47.608;19.366;2023-08-12T02:46:37;99593.72;;;12.66;87.76
80116;BME280;69423;47.608;19.366;2023-08-12T02:47:08;99591.69;;;12.68;88.11
80116;BME280;69423;47.608;19.366;2023-08-12T02:47:39;99590.03;;;12.67;87.56
80116;BME280;69423;47.608;19.366;2023-08-12T02:48:10;99585.34;;;12.69;87.50
80116;BME280;69423;47.608;19.366;2023-08-12T02:48:43;99596.69;;;12.71;87.23
80116;BME280;69423;47.608;19.366;2023-08-12T02:49:14;99589.66;;;12.70;87.69
80116;BME280;69423;47.608;19.366;2023-08-12T02:49:45;99600.38;;;12.70;88.46
80116;BME280;69423;47.608;19.366;2023-08-12T02:50:16;99585.34;;;12.69;87.72
80116;BME280;69423;47.608;19.366;2023-08-12T02:50:47;99592.34;;;12.70;88.26
80116;BME280;69423;47.608;19.366;2023-08-12T02:51:18;99596.88;;;12.70;88.09
80116;BME280;69423;47.608;19.366;2023-08-12T02:51:49;99592.72;;;12.67;88.32
80116;BME280;69423;47.608;19.366;2023-08-12T02:52:20;99591.69;;;12.68;87.97